sensor_id;sensor_type;location;lat;lon;timestamp;P1;durP1;ratioP1;P2;durP2;ratioP2
4565;SDS011;2295;51.050;14.608;2022-11-27T00:01:31;42.22;;;16.98;;
4565;SDS011;2295;51.050;14.608;2022-11-27T00:04:01;43.85;;;18.30;;
4565;SDS011;2295;51.050;14.608;2022-11-27T00:06:29;48.72;;;17.83;;
4565;SDS011;2295;51.050;14.608;2022-11-27T00:08:59;42.83;;;18.73;;
4565;SDS011;2295;51.050;14.608;2022-11-27T00:11:30;45.60;;;18.45;;
4565;SDS011;2295;51.050;14.608;2022-11-27T00:14:00;45.78;;;19.05;;
4565;SDS011;2295;51.050;14.608;2022-11-27T00:16:29;43.13;;;18.33;;
4565;SDS011;2295;51.050;14.608;2022-11-27T00:18:58;54.78;;;18.23;;
4565;SDS011;2295;51.050;14.608;2022-11-27T00:21:27;49.58;;;17.92;;
4565;SDS011;2295;51.050;14.608;2022-11-27T00:23:58;52.75;;;18.88;;
4565;SDS011;2295;51.050;14.608;2022-11-27T00:26:28;44.88;;;18.15;;
4565;SDS011;2295;51.050;14.608;2022-11-27T00:29:05;61.05;;;19.13;;
4565;SDS011;2295;51.050;14.608;2022-11-27T00:31:34;46.38;;;17.65;;
4565;SDS011;2295;51.050;14.608;2022-11-27T00:34:04;48.13;;;18.20;;
4565;SDS011;2295;51.050;14.608;2022-11-27T00:36:34;52.83;;;19.27;;
4565;SDS011;2295;51.050;14.608;2022-11-27T00:39:04;49.40;;;19.42;;
4565;SDS011;2295;51.050;14.608;2022-11-27T00:41:32;51.22;;;19.55;;
4565;SDS011;2295;51.050;14.608;2022-11-27T00:44:01;47.65;;;18.00;;
4565;SDS011;2295;51.050;14.608;2022-11-27T00:46:31;45.58;;;17.10;;
4565;SDS011;2295;51.050;14.608;2022-11-27T00:49:02;44.25;;;18.45;;
4565;SDS011;2295;51.050;14.608;2022-11-27T00:51:31;50.08;;;18.23;;
4565;SDS011;2295;51.050;14.608;2022-11-27T00:54:00;50.75;;;18.88;;
4565;SDS011;2295;51.050;14.608;2022-11-27T00:56:30;44.97;;;18.15;;
4565;SDS011;2295;51.050;14.608;2022-11-27T00:58:59;45.85;;;18.88;;
4565;SDS011;2295;51.050;14.608;2022-11-27T01:01:30;47.20;;;18.90;;
4565;SDS011;2295;51.050;14.608;2022-11-27T01:04:04;48.92;;;19.05;;
4565;SDS011;2295;51.050;14.608;2022-11-27T01:06:33;40.83;;;18.05;;
4565;SDS011;2295;51.050;14.608;2022-11-27T01:09:02;48.20;;;18.48;;
4565;SDS011;2295;51.050;14.608;2022-11-27T01:11:32;69.55;;;19.88;;
4565;SDS011;2295;51.050;14.608;2022-11-27T01:14:02;57.20;;;20.27;;
4565;SDS011;2295;51.050;14.608;2022-11-27T01:16:34;43.17;;;18.65;;
4565;SDS011;2295;51.050;14.608;2022-11-27T01:19:09;53.53;;;19.15;;
4565;SDS011;2295;51.050;14.608;2022-11-27T01:21:38;53.30;;;19.63;;
4565;SDS011;2295;51.050;14.608;2022-11-27T01:24:07;42.00;;;17.92;;
4565;SDS011;2295;51.050;14.608;2022-11-27T01:26:36;61.40;;;20.77;;
4565;SDS011;2295;51.050;14.608;2022-11-27T01:29:04;51.80;;;18.52;;
4565;SDS011;2295;51.050;14.608;2022-11-27T01:31:35;53.35;;;18.75;;
4565;SDS011;2295;51.050;14.608;2022-11-27T01:34:04;46.83;;;18.60;;
4565;SDS011;2295;51.050;14.608;2022-11-27T01:36:34;44.25;;;18.00;;
4565;SDS011;2295;51.050;14.608;2022-11-27T01:39:03;62.42;;;18.98;;
4565;SDS011;2295;51.050;14.608;2022-11-27T01:41:32;41.10;;;17.30;;
4565;SDS011;2295;51.050;14.608;2022-11-27T01:44:02;44.25;;;17.52;;
4565;SDS011;2295;51.050;14.608;2022-11-27T01:46:53;48.55;;;16.95;;
4565;SDS011;2295;51.050;14.608;2022-11-27T01:49:23;43.33;;;16.40;;
4565;SDS011;2295;51.050;14.608;2022-11-27T01:51:57;38.28;;;16.27;;
4565;SDS011;2295;51.050;14.608;2022-11-27T01:54:30;38.85;;;14.38;;
4565;SDS011;2295;51.050;14.608;2022-11-27T01:57:02;48.28;;;15.23;;
4565;SDS011;2295;51.050;14.608;2022-11-27T01:59:34;40.80;;;14.88;;
4565;SDS011;2295;51.050;14.608;2022-11-27T02:02:05;32.40;;;14.95;;
4565;SDS011;2295;51.050;14.608;2022-11-27T02:04:33;42.05;;;14.02;;
4565;SDS011;2295;51.050;14.608;2022-11-27T02:07:02;39.38;;;14.77;;
4565;SDS011;2295;51.050;14.608;2022-11-27T02:09:30;35.20;;;14.05;;
4565;SDS011;2295;51.050;14.608;2022-11-27T02:12:01;42.55;;;14.75;;
4565;SDS011;2295;51.050;14.608;2022-11-27T02:14:36;36.03;;;14.75;;
4565;SDS011;2295;51.050;14.608;2022-11-27T02:17:13;34.88;;;13.93;;
4565;SDS011;2295;51.050;14.608;2022-11-27T02:19:50;37.97;;;14.88;;
4565;SDS011;2295;51.050;14.608;2022-11-27T02:22:35;51.40;;;13.63;;
4565;SDS011;2295;51.050;14.608;2022-11-27T02:25:16;31.85;;;14.95;;
4565;SDS011;2295;51.050;14.608;2022-11-27T02:27:58;30.85;;;14.10;;
4565;SDS011;2295;51.050;14.608;2022-11-27T02:30:40;29.92;;;13.88;;
4565;SDS011;2295;51.050;14.608;2022-11-27T02:33:12;30.98;;;13.65;;
4565;SDS011;2295;51.050;14.608;2022-11-27T02:35:48;44.83;;;13.73;;
4565;SDS011;2295;51.050;14.608;2022-11-27T02:38:23;38.58;;;14.35;;
4565;SDS011;2295;51.050;14.608;2022-11-27T02:40:58;25.35;;;12.57;;
4565;SDS011;2295;51.050;14.608;2022-11-27T02:43:32;28.25;;;11.93;;
4565;SDS011;2295;51.050;14.608;2022-11-27T02:46:05;26.15;;;11.77;;
4565;SDS011;2295;51.050;14.608;2022-11-27T02:48:36;25.77;;;12.43;;
4565;SDS011;2295;51.050;14.608;2022-11-27T02:51:07;30.05;;;12.43;;
4565;SDS011;2295;51.050;14.608;2022-11-27T02:53:38;29.25;;;12.00;;
4565;SDS011;2295;51.050;14.608;2022-11-27T02:56:11;24.48;;;11.10;;
4565;SDS011;2295;51.050;14.608;2022-11-27T02:58:44;25.05;;;11.68;;
4565;SDS011;2295;51.050;14.608;2022-11-27T03:01:15;22.33;;;9.90;;
4565;SDS011;2295;51.050;14.608;2022-11-27T03:03:47;23.95;;;11.38;;
4565;SDS011;2295;51.050;14.608;2022-11-27T03:06:21;23.65;;;11.40;;
4565;SDS011;2295;51.050;14.608;2022-11-27T03:08:56;36.03;;;12.65;;
4565;SDS011;2295;51.050;14.608;2022-11-27T03:11:29;29.20;;;11.15;;
4565;SDS011;2295;51.050;14.608;2022-11-27T03:13:58;22.25;;;11.20;;
4565;SDS011;2295;51.050;14.608;2022-11-27T03:16:33;24.05;;;10.38;;
4565;SDS011;2295;51.050;14.608;2022-11-27T03:19:07;30.05;;;11.27;;
4565;SDS011;2295;51.050;14.608;2022-11-27T03:21:43;24.30;;;10.15;;
4565;SDS011;2295;51.050;14.608;2022-11-27T03:24:15;14.95;;;9.65;;
4565;SDS011;2295;51.050;14.608;2022-11-27T03:26:44;29.38;;;10.77;;
4565;SDS011;2295;51.050;14.608;2022-11-27T03:29:14;29.67;;;12.48;;
4565;SDS011;2295;51.050;14.608;2022-11-27T03:31:47;34.47;;;11.77;;
4565;SDS011;2295;51.050;14.608;2022-11-27T03:34:15;23.85;;;9.68;;
4565;SDS011;2295;51.050;14.608;2022-11-27T03:36:44;16.60;;;9.38;;
4565;SDS011;2295;51.050;14.608;2022-11-27T03:39:13;22.17;;;9.68;;
4565;SDS011;2295;51.050;14.608;2022-11-27T03:41:44;40.58;;;10.98;;
4565;SDS011;2295;51.050;14.608;2022-11-27T03:44:21;28.83;;;10.02;;
4565;SDS011;2295;51.050;14.608;2022-11-27T03:46:57;28.65;;;10.82;;
4565;SDS011;2295;51.050;14.608;2022-11-27T03:49:42;32.78;;;11.20;;
4565;SDS011;2295;51.050;14.608;2022-11-27T03:52:20;22.05;;;10.30;;
4565;SDS011;2295;51.050;14.608;2022-11-27T03:55:00;36.72;;;12.10;;
4565;SDS011;2295;51.050;14.608;2022-11-27T03:57:37;24.13;;;12.15;;
4565;SDS011;2295;51.050;14.608;2022-11-27T04:00:09;26.98;;;11.18;;
4565;SDS011;2295;51.050;14.608;2022-11-27T04:02:42;22.77;;;12.05;;
4565;SDS011;2295;51.050;14.608;2022-11-27T04:05:12;53.10;;;11.80;;
4565;SDS011;2295;51.050;14.608;2022-11-27T04:07:41;32.55;;;11.55;;
4565;SDS011;2295;51.050;14.608;2022-11-27T04:10:10;32.60;;;11.10;;
4565;SDS011;2295;51.050;14.608;2022-11-27T04:12:39;27.20;;;12.13;;
4565;SDS011;2295;51.050;14.608;2022-11-27T04:15:08;23.77;;;10.40;;
4565;SDS011;2295;51.050;14.608;2022-11-27T04:17:38;28.13;;;12.45;;
4565;SDS011;2295;51.050;14.608;2022-11-27T04:20:09;33.42;;;12.10;;
4565;SDS011;2295;51.050;14.608;2022-11-27T04:22:39;27.83;;;12.15;;
4565;SDS011;2295;51.050;14.608;2022-11-27T04:25:08;34.88;;;11.98;;
4565;SDS011;2295;51.050;14.608;2022-11-27T04:27:37;24.90;;;11.25;;
4565;SDS011;2295;51.050;14.608;2022-11-27T04:30:05;27.17;;;11.75;;
4565;SDS011;2295;51.050;14.608;2022-11-27T04:32:34;23.67;;;11.60;;
4565;SDS011;2295;51.050;14.608;2022-11-27T04:35:03;23.08;;;10.63;;
4565;SDS011;2295;51.050;14.608;2022-11-27T04:37:33;29.17;;;10.90;;
4565;SDS011;2295;51.050;14.608;2022-11-27T04:40:02;25.65;;;10.45;;
4565;SDS011;2295;51.050;14.608;2022-11-27T04:42:31;20.42;;;10.90;;
4565;SDS011;2295;51.050;14.608;2022-11-27T04:45:00;23.15;;;10.90;;
4565;SDS011;2295;51.050;14.608;2022-11-27T04:47:28;21.80;;;10.80;;
4565;SDS011;2295;51.050;14.608;2022-11-27T04:49:57;25.48;;;10.70;;
4565;SDS011;2295;51.050;14.608;2022-11-27T04:52:25;25.20;;;10.80;;
4565;SDS011;2295;51.050;14.608;2022-11-27T04:54:55;21.52;;;10.65;;
4565;SDS011;2295;51.050;14.608;2022-11-27T04:57:26;22.80;;;11.43;;
4565;SDS011;2295;51.050;14.608;2022-11-27T04:59:54;25.70;;;11.13;;
4565;SDS011;2295;51.050;14.608;2022-11-27T05:02:23;22.88;;;11.50;;
4565;SDS011;2295;51.050;14.608;2022-11-27T05:04:51;22.65;;;10.65;;
4565;SDS011;2295;51.050;14.608;2022-11-27T05:07:20;16.30;;;9.18;;
4565;SDS011;2295;51.050;14.608;2022-11-27T05:09:49;25.30;;;10.70;;
4565;SDS011;2295;51.050;14.608;2022-11-27T05:12:19;22.05;;;10.27;;
4565;SDS011;2295;51.050;14.608;2022-11-27T05:14:47;19.92;;;9.52;;
4565;SDS011;2295;51.050;14.608;2022-11-27T05:17:15;27.10;;;11.00;;
4565;SDS011;2295;51.050;14.608;2022-11-27T05:19:44;20.27;;;11.07;;
4565;SDS011;2295;51.050;14.608;2022-11-27T05:22:12;17.20;;;10.18;;
4565;SDS011;2295;51.050;14.608;2022-11-27T05:24:41;19.08;;;10.27;;
4565;SDS011;2295;51.050;14.608;2022-11-27T05:27:09;15.52;;;9.25;;
4565;SDS011;2295;51.050;14.608;2022-11-27T05:29:39;19.73;;;8.70;;
4565;SDS011;2295;51.050;14.608;2022-11-27T05:32:09;17.25;;;9.32;;
4565;SDS011;2295;51.050;14.608;2022-11-27T05:34:37;19.90;;;9.43;;
4565;SDS011;2295;51.050;14.608;2022-11-27T05:37:06;13.40;;;9.10;;
4565;SDS011;2295;51.050;14.608;2022-11-27T05:39:34;18.25;;;9.98;;
4565;SDS011;2295;51.050;14.608;2022-11-27T05:42:03;23.88;;;9.77;;
4565;SDS011;2295;51.050;14.608;2022-11-27T05:44:31;21.55;;;10.07;;
4565;SDS011;2295;51.050;14.608;2022-11-27T05:47:01;23.92;;;10.95;;
4565;SDS011;2295;51.050;14.608;2022-11-27T05:49:29;20.50;;;10.52;;
4565;SDS011;2295;51.050;14.608;2022-11-27T05:51:58;27.98;;;10.80;;
4565;SDS011;2295;51.050;14.608;2022-11-27T05:54:26;19.45;;;10.50;;
4565;SDS011;2295;51.050;14.608;2022-11-27T05:56:54;21.23;;;10.18;;
4565;SDS011;2295;51.050;14.608;2022-11-27T05:59:23;22.30;;;10.27;;
4565;SDS011;2295;51.050;14.608;2022-11-27T06:01:51;21.75;;;10.32;;
4565;SDS011;2295;51.050;14.608;2022-11-27T06:04:21;17.92;;;10.32;;
4565;SDS011;2295;51.050;14.608;2022-11-27T06:06:49;19.83;;;9.27;;
4565;SDS011;2295;51.050;14.608;2022-11-27T06:09:18;29.05;;;11.02;;
4565;SDS011;2295;51.050;14.608;2022-11-27T06:11:46;21.73;;;10.35;;
4565;SDS011;2295;51.050;14.608;2022-11-27T06:14:14;31.45;;;12.93;;
4565;SDS011;2295;51.050;14.608;2022-11-27T06:16:42;45.63;;;19.80;;
4565;SDS011;2295;51.050;14.608;2022-11-27T06:19:11;55.42;;;26.45;;
4565;SDS011;2295;51.050;14.608;2022-11-27T06:21:41;97.95;;;37.70;;
4565;SDS011;2295;51.050;14.608;2022-11-27T06:24:12;86.53;;;37.95;;
4565;SDS011;2295;51.050;14.608;2022-11-27T06:26:40;114.15;;;43.38;;
4565;SDS011;2295;51.050;14.608;2022-11-27T06:29:09;90.07;;;37.65;;
4565;SDS011;2295;51.050;14.608;2022-11-27T06:31:37;64.93;;;31.52;;
4565;SDS011;2295;51.050;14.608;2022-11-27T06:34:07;59.30;;;25.50;;
4565;SDS011;2295;51.050;14.608;2022-11-27T06:36:36;41.28;;;20.17;;
4565;SDS011;2295;51.050;14.608;2022-11-27T06:39:08;41.95;;;20.00;;
4565;SDS011;2295;51.050;14.608;2022-11-27T06:41:37;55.72;;;21.10;;
4565;SDS011;2295;51.050;14.608;2022-11-27T06:44:06;45.60;;;20.48;;
4565;SDS011;2295;51.050;14.608;2022-11-27T06:46:36;34.20;;;18.75;;
4565;SDS011;2295;51.050;14.608;2022-11-27T06:49:04;35.20;;;18.48;;
4565;SDS011;2295;51.050;14.608;2022-11-27T06:51:32;33.30;;;17.98;;
4565;SDS011;2295;51.050;14.608;2022-11-27T06:54:01;31.98;;;17.23;;
4565;SDS011;2295;51.050;14.608;2022-11-27T06:56:31;32.78;;;17.20;;
4565;SDS011;2295;51.050;14.608;2022-11-27T06:58:59;34.72;;;16.80;;
4565;SDS011;2295;51.050;14.608;2022-11-27T07:01:29;24.60;;;15.98;;
4565;SDS011;2295;51.050;14.608;2022-11-27T07:03:58;33.33;;;15.73;;
4565;SDS011;2295;51.050;14.608;2022-11-27T07:06:26;34.58;;;19.95;;
4565;SDS011;2295;51.050;14.608;2022-11-27T07:09:09;30.75;;;15.50;;
4565;SDS011;2295;51.050;14.608;2022-11-27T07:11:40;28.35;;;14.60;;
4565;SDS011;2295;51.050;14.608;2022-11-27T07:14:08;34.03;;;17.38;;
4565;SDS011;2295;51.050;14.608;2022-11-27T07:16:37;34.25;;;17.40;;
4565;SDS011;2295;51.050;14.608;2022-11-27T07:19:06;32.75;;;15.20;;
4565;SDS011;2295;51.050;14.608;2022-11-27T07:21:40;31.50;;;15.43;;
4565;SDS011;2295;51.050;14.608;2022-11-27T07:24:08;29.27;;;14.90;;
4565;SDS011;2295;51.050;14.608;2022-11-27T07:26:36;41.65;;;15.77;;
4565;SDS011;2295;51.050;14.608;2022-11-27T07:29:06;26.00;;;14.38;;
4565;SDS011;2295;51.050;14.608;2022-11-27T07:31:34;34.63;;;14.57;;
4565;SDS011;2295;51.050;14.608;2022-11-27T07:34:02;42.88;;;14.57;;
4565;SDS011;2295;51.050;14.608;2022-11-27T07:36:39;29.63;;;15.20;;
4565;SDS011;2295;51.050;14.608;2022-11-27T07:39:07;30.35;;;13.50;;
4565;SDS011;2295;51.050;14.608;2022-11-27T07:41:35;37.45;;;15.20;;
4565;SDS011;2295;51.050;14.608;2022-11-27T07:44:05;33.33;;;15.02;;
4565;SDS011;2295;51.050;14.608;2022-11-27T07:46:33;37.38;;;15.07;;
4565;SDS011;2295;51.050;14.608;2022-11-27T07:49:04;50.28;;;16.67;;
4565;SDS011;2295;51.050;14.608;2022-11-27T07:51:32;43.28;;;16.17;;
4565;SDS011;2295;51.050;14.608;2022-11-27T07:54:01;41.10;;;15.25;;
4565;SDS011;2295;51.050;14.608;2022-11-27T07:56:29;31.17;;;16.13;;
4565;SDS011;2295;51.050;14.608;2022-11-27T07:58:58;37.53;;;17.17;;
4565;SDS011;2295;51.050;14.608;2022-11-27T08:01:28;36.67;;;16.42;;
4565;SDS011;2295;51.050;14.608;2022-11-27T08:03:56;39.15;;;17.42;;
4565;SDS011;2295;51.050;14.608;2022-11-27T08:06:25;35.83;;;16.67;;
4565;SDS011;2295;51.050;14.608;2022-11-27T08:08:53;43.65;;;18.25;;
4565;SDS011;2295;51.050;14.608;2022-11-27T08:11:23;36.28;;;18.50;;
4565;SDS011;2295;51.050;14.608;2022-11-27T08:13:54;33.95;;;18.60;;
4565;SDS011;2295;51.050;14.608;2022-11-27T08:16:23;32.65;;;15.98;;
4565;SDS011;2295;51.050;14.608;2022-11-27T08:18:53;30.20;;;15.85;;
4565;SDS011;2295;51.050;14.608;2022-11-27T08:21:22;30.33;;;16.70;;
4565;SDS011;2295;51.050;14.608;2022-11-27T08:23:52;36.60;;;16.73;;
4565;SDS011;2295;51.050;14.608;2022-11-27T08:26:21;29.38;;;13.05;;
4565;SDS011;2295;51.050;14.608;2022-11-27T08:28:50;24.80;;;12.90;;
4565;SDS011;2295;51.050;14.608;2022-11-27T08:31:19;35.28;;;20.15;;
4565;SDS011;2295;51.050;14.608;2022-11-27T08:33:47;49.75;;;38.78;;
4565;SDS011;2295;51.050;14.608;2022-11-27T08:36:17;26.23;;;16.60;;
4565;SDS011;2295;51.050;14.608;2022-11-27T08:38:45;40.67;;;21.27;;
4565;SDS011;2295;51.050;14.608;2022-11-27T08:41:14;24.67;;;14.82;;
4565;SDS011;2295;51.050;14.608;2022-11-27T08:43:42;18.35;;;12.50;;
4565;SDS011;2295;51.050;14.608;2022-11-27T08:46:10;23.52;;;14.68;;
4565;SDS011;2295;51.050;14.608;2022-11-27T08:48:39;21.73;;;12.75;;
4565;SDS011;2295;51.050;14.608;2022-11-27T08:51:09;32.38;;;16.80;;
4565;SDS011;2295;51.050;14.608;2022-11-27T08:53:40;28.63;;;14.63;;
4565;SDS011;2295;51.050;14.608;2022-11-27T08:56:13;29.45;;;11.63;;
4565;SDS011;2295;51.050;14.608;2022-11-27T08:58:42;15.90;;;8.60;;
4565;SDS011;2295;51.050;14.608;2022-11-27T09:01:13;23.25;;;12.52;;
4565;SDS011;2295;51.050;14.608;2022-11-27T09:03:43;17.58;;;9.48;;
4565;SDS011;2295;51.050;14.608;2022-11-27T09:06:14;21.45;;;10.35;;
4565;SDS011;2295;51.050;14.608;2022-11-27T09:08:45;20.60;;;10.07;;
4565;SDS011;2295;51.050;14.608;2022-11-27T09:11:15;13.65;;;8.38;;
4565;SDS011;2295;51.050;14.608;2022-11-27T09:13:45;20.50;;;8.85;;
4565;SDS011;2295;51.050;14.608;2022-11-27T09:16:14;20.70;;;9.48;;
4565;SDS011;2295;51.050;14.608;2022-11-27T09:18:44;29.08;;;19.15;;
4565;SDS011;2295;51.050;14.608;2022-11-27T09:21:14;24.23;;;11.45;;
4565;SDS011;2295;51.050;14.608;2022-11-27T09:23:46;25.55;;;10.90;;
4565;SDS011;2295;51.050;14.608;2022-11-27T09:26:15;18.88;;;10.15;;
4565;SDS011;2295;51.050;14.608;2022-11-27T09:28:50;22.13;;;10.98;;
4565;SDS011;2295;51.050;14.608;2022-11-27T09:31:19;16.27;;;9.70;;
4565;SDS011;2295;51.050;14.608;2022-11-27T09:33:48;19.83;;;10.18;;
4565;SDS011;2295;51.050;14.608;2022-11-27T09:36:18;26.92;;;11.18;;
4565;SDS011;2295;51.050;14.608;2022-11-27T09:38:52;24.60;;;10.48;;
4565;SDS011;2295;51.050;14.608;2022-11-27T09:44:28;24.13;;;12.73;;
4565;SDS011;2295;51.050;14.608;2022-11-27T09:47:03;23.95;;;11.60;;
4565;SDS011;2295;51.050;14.608;2022-11-27T09:49:38;20.27;;;11.80;;
4565;SDS011;2295;51.050;14.608;2022-11-27T09:52:13;28.30;;;12.65;;
4565;SDS011;2295;51.050;14.608;2022-11-27T09:54:49;25.17;;;12.10;;
4565;SDS011;2295;51.050;14.608;2022-11-27T09:57:24;25.35;;;11.98;;
4565;SDS011;2295;51.050;14.608;2022-11-27T09:59:56;38.92;;;19.17;;
4565;SDS011;2295;51.050;14.608;2022-11-27T10:02:29;27.00;;;13.98;;
4565;SDS011;2295;51.050;14.608;2022-11-27T10:05:02;28.38;;;12.52;;
4565;SDS011;2295;51.050;14.608;2022-11-27T10:21:12;18.15;;;9.40;;
4565;SDS011;2295;51.050;14.608;2022-11-27T10:23:48;17.50;;;9.40;;
4565;SDS011;2295;51.050;14.608;2022-11-27T10:26:24;21.58;;;9.32;;
4565;SDS011;2295;51.050;14.608;2022-11-27T10:28:59;19.42;;;8.50;;
4565;SDS011;2295;51.050;14.608;2022-11-27T10:31:34;15.85;;;7.80;;
4565;SDS011;2295;51.050;14.608;2022-11-27T10:34:12;20.20;;;8.38;;
4565;SDS011;2295;51.050;14.608;2022-11-27T10:36:54;17.50;;;6.97;;
4565;SDS011;2295;51.050;14.608;2022-11-27T10:39:27;7.78;;;4.22;;
4565;SDS011;2295;51.050;14.608;2022-11-27T10:42:02;7.88;;;4.10;;
4565;SDS011;2295;51.050;14.608;2022-11-27T10:44:37;12.45;;;3.92;;
4565;SDS011;2295;51.050;14.608;2022-11-27T10:47:09;16.13;;;4.90;;
4565;SDS011;2295;51.050;14.608;2022-11-27T10:49:41;9.80;;;4.90;;
4565;SDS011;2295;51.050;14.608;2022-11-27T10:52:17;11.98;;;5.75;;
4565;SDS011;2295;51.050;14.608;2022-11-27T10:55:03;13.70;;;5.20;;
4565;SDS011;2295;51.050;14.608;2022-11-27T10:57:47;11.10;;;5.32;;
4565;SDS011;2295;51.050;14.608;2022-11-27T11:00:24;13.60;;;6.30;;
4565;SDS011;2295;51.050;14.608;2022-11-27T11:03:26;11.73;;;6.97;;
4565;SDS011;2295;51.050;14.608;2022-11-27T11:05:56;13.63;;;6.55;;
4565;SDS011;2295;51.050;14.608;2022-11-27T11:08:59;13.35;;;5.70;;
4565;SDS011;2295;51.050;14.608;2022-11-27T11:11:29;13.10;;;5.32;;
4565;SDS011;2295;51.050;14.608;2022-11-27T11:13:58;9.13;;;4.82;;
4565;SDS011;2295;51.050;14.608;2022-11-27T11:16:27;12.55;;;5.45;;
4565;SDS011;2295;51.050;14.608;2022-11-27T11:19:01;12.35;;;5.47;;
4565;SDS011;2295;51.050;14.608;2022-11-27T11:21:32;12.23;;;5.20;;
4565;SDS011;2295;51.050;14.608;2022-11-27T11:24:13;10.98;;;5.25;;
4565;SDS011;2295;51.050;14.608;2022-11-27T11:29:29;9.98;;;4.85;;
4565;SDS011;2295;51.050;14.608;2022-11-27T11:32:05;10.40;;;5.47;;
4565;SDS011;2295;51.050;14.608;2022-11-27T11:34:40;13.55;;;4.97;;
4565;SDS011;2295;51.050;14.608;2022-11-27T11:50:29;7.13;;;4.22;;
4565;SDS011;2295;51.050;14.608;2022-11-27T11:53:04;6.30;;;3.97;;
4565;SDS011;2295;51.050;14.608;2022-11-27T11:55:41;10.60;;;5.25;;
4565;SDS011;2295;51.050;14.608;2022-11-27T12:03:53;11.88;;;5.63;;
4565;SDS011;2295;51.050;14.608;2022-11-27T12:06:38;13.93;;;5.43;;
4565;SDS011;2295;51.050;14.608;2022-11-27T12:09:27;9.75;;;5.43;;
4565;SDS011;2295;51.050;14.608;2022-11-27T12:12:07;15.43;;;5.28;;
4565;SDS011;2295;51.050;14.608;2022-11-27T12:14:49;15.02;;;6.65;;
4565;SDS011;2295;51.050;14.608;2022-11-27T12:20:04;18.02;;;6.38;;
4565;SDS011;2295;51.050;14.608;2022-11-27T12:22:50;11.75;;;6.45;;
4565;SDS011;2295;51.050;14.608;2022-11-27T12:25:52;11.63;;;6.75;;
4565;SDS011;2295;51.050;14.608;2022-11-27T12:28:34;15.05;;;7.22;;
4565;SDS011;2295;51.050;14.608;2022-11-27T12:31:36;11.95;;;6.30;;
4565;SDS011;2295;51.050;14.608;2022-11-27T12:34:25;10.73;;;6.70;;
4565;SDS011;2295;51.050;14.608;2022-11-27T12:37:08;18.75;;;8.05;;
4565;SDS011;2295;51.050;14.608;2022-11-27T12:39:54;15.20;;;7.30;;
4565;SDS011;2295;51.050;14.608;2022-11-27T12:42:33;18.67;;;8.82;;
4565;SDS011;2295;51.050;14.608;2022-11-27T12:45:14;15.32;;;6.88;;
4565;SDS011;2295;51.050;14.608;2022-11-27T12:47:50;16.30;;;7.50;;
4565;SDS011;2295;51.050;14.608;2022-11-27T12:50:31;15.52;;;6.65;;
4565;SDS011;2295;51.050;14.608;2022-11-27T12:53:05;12.07;;;7.20;;
4565;SDS011;2295;51.050;14.608;2022-11-27T12:55:47;17.77;;;7.10;;
4565;SDS011;2295;51.050;14.608;2022-11-27T12:58:24;21.73;;;11.32;;
4565;SDS011;2295;51.050;14.608;2022-11-27T13:01:04;29.85;;;9.77;;
4565;SDS011;2295;51.050;14.608;2022-11-27T13:03:39;20.85;;;8.07;;
4565;SDS011;2295;51.050;14.608;2022-11-27T13:06:20;19.05;;;10.20;;
4565;SDS011;2295;51.050;14.608;2022-11-27T13:08:53;14.75;;;11.82;;
4565;SDS011;2295;51.050;14.608;2022-11-27T13:11:33;11.23;;;6.10;;
4565;SDS011;2295;51.050;14.608;2022-11-27T13:14:09;15.77;;;8.18;;
4565;SDS011;2295;51.050;14.608;2022-11-27T13:16:41;16.10;;;9.10;;
4565;SDS011;2295;51.050;14.608;2022-11-27T13:19:15;13.07;;;6.63;;
4565;SDS011;2295;51.050;14.608;2022-11-27T13:21:54;11.60;;;6.65;;
4565;SDS011;2295;51.050;14.608;2022-11-27T13:24:25;17.88;;;9.13;;
4565;SDS011;2295;51.050;14.608;2022-11-27T13:26:59;20.02;;;10.02;;
4565;SDS011;2295;51.050;14.608;2022-11-27T13:29:36;13.98;;;6.63;;
4565;SDS011;2295;51.050;14.608;2022-11-27T13:32:17;16.80;;;6.70;;
4565;SDS011;2295;51.050;14.608;2022-11-27T13:34:49;14.13;;;6.78;;
4565;SDS011;2295;51.050;14.608;2022-11-27T13:37:24;11.07;;;6.18;;
4565;SDS011;2295;51.050;14.608;2022-11-27T13:39:59;11.35;;;5.85;;
4565;SDS011;2295;51.050;14.608;2022-11-27T13:46:02;12.00;;;5.15;;
4565;SDS011;2295;51.050;14.608;2022-11-27T13:48:38;14.23;;;5.60;;
4565;SDS011;2295;51.050;14.608;2022-11-27T13:57:30;12.65;;;6.05;;
4565;SDS011;2295;51.050;14.608;2022-11-27T14:00:01;10.13;;;6.15;;
4565;SDS011;2295;51.050;14.608;2022-11-27T14:02:40;21.08;;;5.95;;
4565;SDS011;2295;51.050;14.608;2022-11-27T14:05:15;13.45;;;6.25;;
4565;SDS011;2295;51.050;14.608;2022-11-27T14:07:48;13.25;;;5.45;;
4565;SDS011;2295;51.050;14.608;2022-11-27T14:10:28;45.50;;;22.52;;
4565;SDS011;2295;51.050;14.608;2022-11-27T14:12:59;8.63;;;5.75;;
4565;SDS011;2295;51.050;14.608;2022-11-27T14:15:33;42.22;;;19.70;;
4565;SDS011;2295;51.050;14.608;2022-11-27T14:29:54;17.88;;;7.90;;
4565;SDS011;2295;51.050;14.608;2022-11-27T14:32:32;19.85;;;7.82;;
4565;SDS011;2295;51.050;14.608;2022-11-27T14:35:17;17.50;;;8.55;;
4565;SDS011;2295;51.050;14.608;2022-11-27T14:37:47;19.83;;;8.63;;
4565;SDS011;2295;51.050;14.608;2022-11-27T14:40:19;21.35;;;9.45;;
4565;SDS011;2295;51.050;14.608;2022-11-27T14:43:08;43.70;;;18.95;;
4565;SDS011;2295;51.050;14.608;2022-11-27T14:45:51;36.50;;;16.20;;
4565;SDS011;2295;51.050;14.608;2022-11-27T14:48:25;33.83;;;15.32;;
4565;SDS011;2295;51.050;14.608;2022-11-27T14:51:20;17.77;;;9.70;;
4565;SDS011;2295;51.050;14.608;2022-11-27T14:54:19;17.27;;;9.25;;
4565;SDS011;2295;51.050;14.608;2022-11-27T15:41:15;39.97;;;18.13;;
4565;SDS011;2295;51.050;14.608;2022-11-27T15:44:20;40.60;;;18.92;;
4565;SDS011;2295;51.050;14.608;2022-11-27T15:46:58;75.97;;;32.80;;
4565;SDS011;2295;51.050;14.608;2022-11-27T15:49:47;53.22;;;23.48;;
4565;SDS011;2295;51.050;14.608;2022-11-27T15:52:23;42.60;;;18.02;;
4565;SDS011;2295;51.050;14.608;2022-11-27T15:55:07;42.53;;;16.15;;
4565;SDS011;2295;51.050;14.608;2022-11-27T15:58:04;42.13;;;14.70;;
4565;SDS011;2295;51.050;14.608;2022-11-27T16:00:55;34.20;;;16.10;;
4565;SDS011;2295;51.050;14.608;2022-11-27T16:04:23;40.60;;;17.20;;
4565;SDS011;2295;51.050;14.608;2022-11-27T16:07:31;44.33;;;21.63;;
4565;SDS011;2295;51.050;14.608;2022-11-27T16:10:38;45.42;;;18.20;;
4565;SDS011;2295;51.050;14.608;2022-11-27T16:13:32;49.00;;;20.98;;
4565;SDS011;2295;51.050;14.608;2022-11-27T16:16:05;48.95;;;21.65;;
4565;SDS011;2295;51.050;14.608;2022-11-27T16:18:40;60.40;;;25.08;;
4565;SDS011;2295;51.050;14.608;2022-11-27T16:26:41;84.10;;;42.03;;
4565;SDS011;2295;51.050;14.608;2022-11-27T16:29:17;53.60;;;23.23;;
4565;SDS011;2295;51.050;14.608;2022-11-27T16:31:46;51.63;;;20.50;;
4565;SDS011;2295;51.050;14.608;2022-11-27T16:34:15;61.13;;;30.88;;
4565;SDS011;2295;51.050;14.608;2022-11-27T16:37:46;52.38;;;29.20;;
4565;SDS011;2295;51.050;14.608;2022-11-27T16:40:14;52.30;;;24.40;;
4565;SDS011;2295;51.050;14.608;2022-11-27T16:42:44;57.47;;;23.20;;
4565;SDS011;2295;51.050;14.608;2022-11-27T16:45:17;62.70;;;28.30;;
4565;SDS011;2295;51.050;14.608;2022-11-27T16:47:50;57.65;;;24.45;;
4565;SDS011;2295;51.050;14.608;2022-11-27T16:50:30;59.83;;;27.58;;
4565;SDS011;2295;51.050;14.608;2022-11-27T16:53:00;48.38;;;23.05;;
4565;SDS011;2295;51.050;14.608;2022-11-27T16:55:33;52.03;;;21.40;;
4565;SDS011;2295;51.050;14.608;2022-11-27T16:58:04;43.00;;;20.30;;
4565;SDS011;2295;51.050;14.608;2022-11-27T17:00:36;48.92;;;20.30;;
4565;SDS011;2295;51.050;14.608;2022-11-27T17:03:05;46.65;;;21.60;;
4565;SDS011;2295;51.050;14.608;2022-11-27T17:05:35;53.63;;;25.25;;
4565;SDS011;2295;51.050;14.608;2022-11-27T17:08:05;76.80;;;35.55;;